createdAt,value
2022-11-01T00:02:22.213Z,14.46
2022-11-01T00:05:45.735Z,14.47
2022-11-01T00:08:24.881Z,14.44
2022-11-01T00:11:32.479Z,14.45
2022-11-01T00:14:09.590Z,14.43
2022-11-01T00:19:51.719Z,14.43
2022-11-01T00:22:23.707Z,14.43
2022-11-01T00:25:24.936Z,14.43
2022-11-01T00:28:21.120Z,14.41
2022-11-01T00:41:36.799Z,14.34
2022-11-01T00:44:37.739Z,14.34
2022-11-01T00:47:12.205Z,14.33
2022-11-01T00:50:15.547Z,14.35
2022-11-01T00:53:15.596Z,14.35
2022-11-01T00:59:41.039Z,14.29
2022-11-01T01:02:18.044Z,14.28
2022-11-01T01:05:18.242Z,14.28
2022-11-01T01:07:57.255Z,14.27
2022-11-01T01:10:58.026Z,14.30
2022-11-01T01:13:38.189Z,14.30
2022-11-01T01:16:50.173Z,14.31
2022-11-01T01:22:51.517Z,14.34
2022-11-01T01:25:29.937Z,14.40
2022-11-01T01:28:53.943Z,14.43
2022-11-01T01:35:37.603Z,14.43
2022-11-01T01:38:40.067Z,14.38
2022-11-01T01:41:32.551Z,14.36
2022-11-01T01:48:25.711Z,14.37
2022-11-01T01:51:07.588Z,14.34
2022-11-01T01:54:36.179Z,14.36
2022-11-01T01:57:56.810Z,14.35
2022-11-01T02:14:38.336Z,14.24
2022-11-01T02:17:59.365Z,14.24
2022-11-01T02:21:25.917Z,14.19
2022-11-01T02:24:27.214Z,14.13
2022-11-01T02:27:21.577Z,14.07
2022-11-01T02:30:41.973Z,14.03
2022-11-01T02:34:32.751Z,13.99
2022-11-01T02:37:23.032Z,13.91
2022-11-01T02:40:06.570Z,13.85
2022-11-01T02:45:56.511Z,13.86
2022-11-01T02:48:29.685Z,13.81
2022-11-01T02:51:51.942Z,13.81
2022-11-01T02:54:53.184Z,13.78
2022-11-01T03:01:16.359Z,13.71
2022-11-01T03:04:22.007Z,13.70
2022-11-01T03:06:58.005Z,13.68
2022-11-01T03:09:43.648Z,13.66
2022-11-01T03:12:33.297Z,13.68
2022-11-01T03:18:55.081Z,13.74
2022-11-01T03:21:34.469Z,13.76
2022-11-01T03:24:35.908Z,13.79
2022-11-01T03:27:39.192Z,13.84
2022-11-01T03:30:27.432Z,13.88
2022-11-01T03:33:25.925Z,13.90
2022-11-01T03:39:42.427Z,14.01
2022-11-01T03:42:25.162Z,14.09
2022-11-01T03:45:11.683Z,14.17
2022-11-01T03:47:47.731Z,14.22
2022-11-01T03:57:18.000Z,14.37
2022-11-01T03:59:54.969Z,14.41
2022-11-01T04:06:41.891Z,14.48
2022-11-01T04:09:41.081Z,14.49
2022-11-01T04:12:19.963Z,14.48
2022-11-01T04:15:16.025Z,14.50
2022-11-01T04:21:52.465Z,14.48
2022-11-01T04:24:27.708Z,14.48
2022-11-01T04:27:01.024Z,14.57
2022-11-01T04:29:36.876Z,14.60
2022-11-01T04:32:20.734Z,14.57
2022-11-01T04:35:19.700Z,14.59
2022-11-01T04:38:28.261Z,14.69
2022-11-01T04:41:05.740Z,14.78
2022-11-01T04:44:29.711Z,14.84
2022-11-01T04:47:05.367Z,14.88
2022-11-01T04:49:42.214Z,14.91
2022-11-01T04:52:16.130Z,14.97
2022-11-01T04:55:15.418Z,15.02
2022-11-01T05:05:28.261Z,15.23
2022-11-01T05:08:20.602Z,15.28
2022-11-01T05:10:57.260Z,15.31
2022-11-01T05:14:08.517Z,15.38
2022-11-01T05:17:05.002Z,15.43
2022-11-01T05:19:42.278Z,15.45
2022-11-01T05:22:17.889Z,15.51
2022-11-01T05:25:18.002Z,15.55
2022-11-01T05:28:20.210Z,15.58
2022-11-01T05:31:17.066Z,15.65
2022-11-01T05:34:19.429Z,15.68
2022-11-01T05:37:45.650Z,15.74
2022-11-01T05:40:23.523Z,15.80
2022-11-01T05:42:58.335Z,15.83
2022-11-01T05:46:21.657Z,15.86
2022-11-01T05:49:18.420Z,15.86
2022-11-01T05:51:56.388Z,15.84
2022-11-01T05:54:58.213Z,15.85
2022-11-01T05:57:33.668Z,15.90
2022-11-01T06:07:16.958Z,16.05
2022-11-01T06:10:13.305Z,16.05
2022-11-01T06:13:36.159Z,16.07
2022-11-01T06:16:35.671Z,16.08
2022-11-01T06:19:36.667Z,16.14
2022-11-01T06:22:13.676Z,16.20
2022-11-01T06:25:17.297Z,16.22
2022-11-01T06:27:56.848Z,16.30
2022-11-01T06:34:47.329Z,16.51
2022-11-01T06:37:25.365Z,16.54
2022-11-01T06:40:04.309Z,16.57
2022-11-01T06:42:45.396Z,16.64
2022-11-01T06:45:47.415Z,16.69
2022-11-01T06:48:22.995Z,16.78
2022-11-01T06:58:07.464Z,16.85
2022-11-01T07:04:30.496Z,16.89
2022-11-01T07:07:57.429Z,16.92
2022-11-01T07:11:05.849Z,16.95
2022-11-01T07:14:36.795Z,16.97
2022-11-01T07:17:22.581Z,16.97
2022-11-01T07:27:07.272Z,17.13
2022-11-01T07:29:53.232Z,17.19
2022-11-01T07:36:23.040Z,17.27
2022-11-01T07:39:00.708Z,17.29
2022-11-01T07:52:22.437Z,17.39
2022-11-01T07:55:21.071Z,17.47
2022-11-01T07:58:07.185Z,17.57
2022-11-01T08:04:34.477Z,17.86
2022-11-01T08:07:07.208Z,17.91
2022-11-01T08:09:53.098Z,17.98
2022-11-01T08:19:23.781Z,18.14
2022-11-01T08:22:00.216Z,18.19
2022-11-01T08:24:33.996Z,18.23
2022-11-01T08:27:13.011Z,18.30
2022-11-01T08:29:49.263Z,18.43
2022-11-01T08:32:24.142Z,18.59
2022-11-01T08:34:56.839Z,18.78
2022-11-01T08:37:33.714Z,18.99
2022-11-01T08:40:11.966Z,19.12
2022-11-01T08:42:45.044Z,19.21
2022-11-01T08:45:23.040Z,19.29
2022-11-01T08:48:02.970Z,19.27
2022-11-01T08:50:38.039Z,19.31
2022-11-01T08:53:11.536Z,19.41
2022-11-01T08:55:43.784Z,19.49
2022-11-01T08:58:16.530Z,19.50
2022-11-01T09:00:48.469Z,19.54
2022-11-01T09:03:21.176Z,19.59
2022-11-01T09:05:52.955Z,19.65
2022-11-01T09:08:25.714Z,19.78
2022-11-01T09:11:02.476Z,19.92
2022-11-01T09:13:35.076Z,20.11
2022-11-01T09:16:10.565Z,20.33
2022-11-01T09:18:43.389Z,20.57
2022-11-01T09:21:21.925Z,20.85
2022-11-01T09:23:53.944Z,20.95
2022-11-01T09:26:29.413Z,21.01
2022-11-01T09:29:09.074Z,21.08
2022-11-01T09:32:37.909Z,21.10
2022-11-01T09:35:17.164Z,21.08
2022-11-01T09:38:42.229Z,20.97
2022-11-01T09:41:52.974Z,20.74
2022-11-01T09:44:38.666Z,20.68
2022-11-01T09:47:41.961Z,20.76
2022-11-01T09:50:24.268Z,20.79
2022-11-01T09:53:02.557Z,20.90
2022-11-01T09:56:15.877Z,20.94
2022-11-01T09:59:05.195Z,20.90
2022-11-01T10:01:50.829Z,20.90
2022-11-01T10:08:25.999Z,21.07
2022-11-01T10:11:43.429Z,21.10
2022-11-01T10:14:56.172Z,21.02
2022-11-01T10:18:13.771Z,20.96
2022-11-01T10:20:49.689Z,20.91
2022-11-01T10:27:48.774Z,20.63
2022-11-01T10:30:51.081Z,20.57
2022-11-01T10:34:17.694Z,20.53
2022-11-01T10:37:21.444Z,20.61
2022-11-01T10:40:21.121Z,20.62
2022-11-01T10:47:27.113Z,20.75
2022-11-01T10:50:54.665Z,20.81
2022-11-01T10:54:42.020Z,20.95
2022-11-01T10:57:52.875Z,21.01
2022-11-01T11:05:06.997Z,21.17
2022-11-01T11:08:10.005Z,21.20
2022-11-01T11:10:51.239Z,21.28
2022-11-01T11:13:26.454Z,21.32
2022-11-01T11:19:41.995Z,21.32
2022-11-01T11:22:43.909Z,21.32
2022-11-01T11:32:22.417Z,21.48
2022-11-01T11:35:25.419Z,21.65
2022-11-01T11:38:06.488Z,21.82
2022-11-01T11:40:50.716Z,21.96
2022-11-01T11:47:06.765Z,22.44
2022-11-01T11:49:43.229Z,22.67
2022-11-01T11:52:28.340Z,22.81
2022-11-01T11:58:43.235Z,22.84
2022-11-01T12:01:26.981Z,22.93
2022-11-01T12:04:53.175Z,22.99
2022-11-01T12:08:02.598Z,22.95
2022-11-01T12:11:02.322Z,22.63
2022-11-01T12:21:10.381Z,22.34
2022-11-01T12:23:52.367Z,22.24
2022-11-01T12:26:50.720Z,22.05
2022-11-01T12:29:55.775Z,21.76
2022-11-01T12:37:07.374Z,21.72
2022-11-01T12:39:54.529Z,21.91
2022-11-01T12:43:41.367Z,22.02
2022-11-01T12:47:09.575Z,21.86
2022-11-01T12:49:51.336Z,21.80
2022-11-01T12:53:23.342Z,21.76
2022-11-01T12:55:55.472Z,21.67
2022-11-01T13:03:08.011Z,21.59
2022-11-01T13:06:19.002Z,21.29
2022-11-01T13:09:04.789Z,21.07
2022-11-01T13:12:10.457Z,20.99
2022-11-01T13:15:22.870Z,21.00
2022-11-01T13:18:17.447Z,20.99
2022-11-01T13:21:39.365Z,21.07
2022-11-01T13:24:49.659Z,21.11
2022-11-01T13:27:56.634Z,21.20
2022-11-01T13:30:32.386Z,21.26
2022-11-01T13:33:19.505Z,21.24
2022-11-01T13:36:00.493Z,21.09
2022-11-01T13:38:43.322Z,20.97
2022-11-01T13:42:04.786Z,20.89
2022-11-01T13:48:24.118Z,20.69
2022-11-01T13:51:55.168Z,20.56
2022-11-01T13:54:44.340Z,20.52
2022-11-01T13:57:46.685Z,20.49
2022-11-01T14:05:11.639Z,20.28
2022-11-01T14:08:16.099Z,20.23
2022-11-01T14:21:57.829Z,19.68
2022-11-01T14:24:35.451Z,19.51
2022-11-01T14:34:41.915Z,18.96
2022-11-01T14:37:30.910Z,18.85
2022-11-01T14:40:38.481Z,18.78
2022-11-01T14:43:48.961Z,18.77
2022-11-01T14:49:40.870Z,18.62
2022-11-01T14:52:22.407Z,18.51
2022-11-01T14:55:09.015Z,18.44
2022-11-01T14:58:33.044Z,18.41
2022-11-01T15:05:26.983Z,18.21
2022-11-01T15:08:06.793Z,18.14
2022-11-01T15:11:11.035Z,18.07
2022-11-01T15:24:47.292Z,17.76
2022-11-01T15:31:30.606Z,17.57
2022-11-01T15:34:34.602Z,17.50
2022-11-01T15:37:49.047Z,17.45
2022-11-01T15:47:26.489Z,17.22
2022-11-01T15:50:30.509Z,17.18
2022-11-01T16:04:15.641Z,16.99
2022-11-01T16:07:37.848Z,16.94
2022-11-01T16:10:47.397Z,16.89
2022-11-01T16:13:25.485Z,16.86
2022-11-01T16:19:57.827Z,16.79
2022-11-01T16:23:03.410Z,16.79
2022-11-01T16:32:40.068Z,16.71
2022-11-01T16:36:08.914Z,16.68
2022-11-01T16:38:55.833Z,16.65
2022-11-01T16:41:59.302Z,16.60
2022-11-01T16:45:00.865Z,16.60
2022-11-01T16:48:01.968Z,16.60
2022-11-01T16:51:00.205Z,16.57
2022-11-01T16:54:10.432Z,16.56
2022-11-01T16:57:08.705Z,16.55
2022-11-01T16:59:48.116Z,16.51
2022-11-01T17:02:50.592Z,16.50
2022-11-01T17:08:37.375Z,16.44
2022-11-01T17:11:11.493Z,16.44
2022-11-01T17:14:12.462Z,16.42
2022-11-01T17:20:28.805Z,16.38
2022-11-01T17:23:26.529Z,16.35
2022-11-01T17:26:03.821Z,16.32
2022-11-01T17:28:37.438Z,16.31
2022-11-01T17:31:15.149Z,16.30
2022-11-01T17:33:51.274Z,16.29
2022-11-01T17:36:30.569Z,16.27
2022-11-01T17:39:34.290Z,16.25
2022-11-01T17:42:15.525Z,16.23
2022-11-01T17:49:00.714Z,16.26
2022-11-01T17:55:22.138Z,16.20
2022-11-01T18:01:22.383Z,16.19
2022-11-01T18:04:52.610Z,16.18
2022-11-01T18:08:19.388Z,16.19
2022-11-01T18:11:37.213Z,16.21
2022-11-01T18:14:49.742Z,16.17
2022-11-01T18:17:39.891Z,16.18
2022-11-01T18:20:35.756Z,16.17
2022-11-01T18:23:26.077Z,16.16
2022-11-01T18:26:00.805Z,16.17
2022-11-01T18:29:30.615Z,16.19
2022-11-01T18:33:13.390Z,16.17
2022-11-01T18:36:20.527Z,16.15
2022-11-01T18:42:28.277Z,16.11
2022-11-01T18:45:33.207Z,16.11
2022-11-01T18:51:57.303Z,16.06
2022-11-01T18:54:38.105Z,16.05
2022-11-01T18:57:18.839Z,16.01
2022-11-01T19:00:10.198Z,16.02
2022-11-01T19:02:45.826Z,16.02
2022-11-01T19:05:34.437Z,16.01
2022-11-01T19:08:26.602Z,16.02
2022-11-01T19:11:04.778Z,16.06
2022-11-01T19:13:41.577Z,16.05
2022-11-01T19:16:42.701Z,16.06
2022-11-01T19:19:47.202Z,16.07
2022-11-01T19:22:39.129Z,16.02
2022-11-01T19:25:35.310Z,16.04
2022-11-01T19:28:42.569Z,16.00
2022-11-01T19:31:37.083Z,16.01
2022-11-01T19:34:44.272Z,16.03
2022-11-01T19:37:37.527Z,16.05
2022-11-01T19:40:59.969Z,16.05
2022-11-01T19:44:28.162Z,16.05
2022-11-01T19:47:25.238Z,16.07
2022-11-01T19:50:00.963Z,16.09
2022-11-01T19:52:47.713Z,16.10
2022-11-01T19:59:43.022Z,16.17
2022-11-01T20:02:25.809Z,16.19
2022-11-01T20:05:31.968Z,16.19
2022-11-01T20:16:10.972Z,16.15
2022-11-01T20:19:17.422Z,16.15
2022-11-01T20:22:16.699Z,16.16
2022-11-01T20:24:50.626Z,16.20
2022-11-01T20:27:27.642Z,16.21
2022-11-01T20:30:26.348Z,16.22
2022-11-01T20:33:30.373Z,16.25
2022-11-01T20:36:11.228Z,16.27
2022-11-01T20:39:15.532Z,16.29
2022-11-01T20:42:13.052Z,16.32
2022-11-01T20:45:16.612Z,16.31
2022-11-01T20:48:15.248Z,16.33
2022-11-01T20:50:50.920Z,16.36
2022-11-01T20:54:24.336Z,16.39
2022-11-01T20:57:00.763Z,16.35
2022-11-01T20:59:35.446Z,16.21
2022-11-01T21:05:58.099Z,16.21
2022-11-01T21:08:37.762Z,16.24
2022-11-01T21:11:16.562Z,16.25
2022-11-01T21:17:22.549Z,16.28
2022-11-01T21:20:43.875Z,16.34
2022-11-01T21:27:27.360Z,16.48
2022-11-01T21:30:40.654Z,16.53
2022-11-01T21:34:03.658Z,16.60
2022-11-01T21:37:07.847Z,16.68
2022-11-01T21:39:40.866Z,16.74
2022-11-01T21:42:36.536Z,16.77
2022-11-01T21:45:30.998Z,16.95
2022-11-01T21:52:38.653Z,17.15
2022-11-01T21:55:15.503Z,17.22
2022-11-01T21:57:56.942Z,17.24
2022-11-01T22:00:34.386Z,17.27
2022-11-01T22:03:14.540Z,17.31
2022-11-01T22:05:51.115Z,17.35
2022-11-01T22:08:24.654Z,17.38
2022-11-01T22:21:33.793Z,17.45
2022-11-01T22:27:37.131Z,17.31
2022-11-01T22:30:23.774Z,17.28
2022-11-01T22:33:52.005Z,17.41
2022-11-01T22:36:30.054Z,17.33
2022-11-01T22:39:17.913Z,17.17
2022-11-01T22:42:18.417Z,17.28
2022-11-01T22:47:50.008Z,17.30
2022-11-01T22:50:32.304Z,17.28
2022-11-01T22:57:19.064Z,17.30
2022-11-01T23:00:25.204Z,17.30
2022-11-01T23:03:28.835Z,17.27
2022-11-01T23:07:03.333Z,17.25
2022-11-01T23:09:47.914Z,17.26
2022-11-01T23:13:34.210Z,17.21
2022-11-01T23:20:42.237Z,17.02
2022-11-01T23:23:44.530Z,16.87
2022-11-01T23:26:40.272Z,16.81
2022-11-01T23:29:43.945Z,16.86
2022-11-01T23:32:16.093Z,16.91
2022-11-01T23:35:15.950Z,16.88
2022-11-01T23:37:56.618Z,16.92
2022-11-01T23:40:36.371Z,16.87
2022-11-01T23:47:19.265Z,16.90
2022-11-01T23:50:06.603Z,16.95
2022-11-01T23:52:51.097Z,16.87
2022-11-01T23:56:14.315Z,17.06
